Terminal Aerodrome Forecast
Issued by NWS Honolulu, HI

Home | Current Version | Previous Version | Text Only | Print | Product List | Glossary On
Versions: 1 2 3 4 5 6 7 8 9 10 11 12 13 14 15 16 17 18 19 20 21 22 23 24 25 26 27 28 29 30 31 32 33 34 35 36 37 38 39 40 41 42 43 44 45 46 47 48 49 50
000
FTPA31 PHFO 020300 AAA
TAFHNL
TAF AMD
PHNL 020305Z 0203/0306 07012KT P6SM FEW030 SCT060
     FM020500 06008KT P6SM FEW025 SCT060
     FM021900 06014G22KT P6SM FEW030 SCT050
     FM030500 06008KT P6SM FEW025 SCT060=

USA.gov is the U.S. government's official web portal to all federal, state and local government web resources and services.